createdAt,value
2022-10-04T00:04:16.271Z,15.19
2022-10-04T00:09:18.654Z,14.82
2022-10-04T00:14:29.637Z,14.79
2022-10-04T00:19:39.806Z,15.34
2022-10-04T00:24:40.871Z,15.09
2022-10-04T00:29:41.457Z,15.28
2022-10-04T00:34:47.325Z,14.61
2022-10-04T00:39:46.016Z,14.94
2022-10-04T00:44:51.135Z,15.09
2022-10-04T00:49:55.534Z,14.62
2022-10-04T00:55:02.191Z,14.52
2022-10-04T01:00:03.564Z,14.63
2022-10-04T01:05:06.169Z,14.93
2022-10-04T01:10:08.848Z,15.08
2022-10-04T01:15:13.796Z,14.44
2022-10-04T01:20:32.859Z,15.12
2022-10-04T01:25:49.490Z,15.09
2022-10-04T01:30:46.764Z,14.77
2022-10-04T01:35:45.163Z,15.05
2022-10-04T01:40:51.135Z,14.95
2022-10-04T01:45:56.951Z,14.73
2022-10-04T01:50:58.734Z,14.58
2022-10-04T01:56:05.577Z,14.61
2022-10-04T02:01:09.874Z,14.80
2022-10-04T02:06:10.185Z,14.19
2022-10-04T02:11:07.442Z,14.72
2022-10-04T02:16:11.907Z,14.26
2022-10-04T02:21:10.269Z,14.43
2022-10-04T02:26:08.269Z,13.98
2022-10-04T02:31:24.606Z,14.36
2022-10-04T02:36:27.964Z,14.36
2022-10-04T02:41:31.627Z,14.37
2022-10-04T02:46:33.791Z,14.11
2022-10-04T02:51:41.722Z,14.47
2022-10-04T02:56:42.449Z,13.77
2022-10-04T03:01:51.005Z,13.97
2022-10-04T03:06:50.241Z,13.95
2022-10-04T03:11:49.575Z,14.38
2022-10-04T03:16:53.285Z,14.20
2022-10-04T03:21:55.765Z,13.95
2022-10-04T03:26:57.026Z,14.32
2022-10-04T03:37:21.066Z,13.88
2022-10-04T03:42:23.739Z,14.10
2022-10-04T03:47:25.567Z,13.96
2022-10-04T03:52:27.151Z,14.02
2022-10-04T03:57:33.623Z,13.89
2022-10-04T04:02:36.311Z,13.60
2022-10-04T04:07:40.026Z,14.25
2022-10-04T04:12:40.584Z,14.06
2022-10-04T04:17:44.365Z,13.54
2022-10-04T04:23:24.160Z,14.25
2022-10-04T04:28:30.793Z,14.25
2022-10-04T04:33:56.054Z,13.57
2022-10-04T04:39:39.081Z,13.81
2022-10-04T04:44:37.792Z,13.87
2022-10-04T04:49:58.665Z,14.13
2022-10-04T04:55:19.071Z,13.95
2022-10-04T05:00:52.171Z,13.67
2022-10-04T05:06:26.645Z,14.49
2022-10-04T05:11:54.523Z,14.49
2022-10-04T05:17:24.817Z,14.45
2022-10-04T05:22:29.882Z,14.47
2022-10-04T05:27:32.690Z,14.52
2022-10-04T05:32:48.540Z,14.65
2022-10-04T05:38:04.288Z,15.18
2022-10-04T05:43:57.112Z,15.12
2022-10-04T05:55:24.326Z,15.80
2022-10-04T06:01:40.861Z,16.68
2022-10-04T06:06:49.230Z,17.06
2022-10-04T06:12:01.635Z,16.80
2022-10-04T06:17:18.394Z,16.59
2022-10-04T06:22:16.828Z,17.40
2022-10-04T06:27:23.015Z,17.61
2022-10-04T06:32:56.515Z,17.95
2022-10-04T06:38:36.960Z,17.71
2022-10-04T06:44:18.565Z,18.30
2022-10-04T06:49:33.448Z,20.15
2022-10-04T06:54:50.181Z,21.87
2022-10-04T07:00:04.132Z,23.17
2022-10-04T07:05:38.867Z,24.61
2022-10-04T07:11:01.542Z,26.33
2022-10-04T07:16:03.773Z,26.29
2022-10-04T07:21:11.903Z,25.96
2022-10-04T07:26:24.864Z,25.08
2022-10-04T07:31:26.862Z,25.06
2022-10-04T07:36:50.680Z,24.55
2022-10-04T07:42:24.617Z,24.09
2022-10-04T07:47:25.823Z,23.83
2022-10-04T07:52:37.490Z,24.38
2022-10-04T07:57:41.240Z,24.93
2022-10-04T08:02:49.746Z,26.12
2022-10-04T08:08:23.303Z,27.61
2022-10-04T08:13:26.185Z,28.97
2022-10-04T08:19:01.137Z,30.80
2022-10-04T08:24:16.318Z,31.83
2022-10-04T08:29:49.836Z,32.68
2022-10-04T08:35:15.764Z,32.92
2022-10-04T08:41:04.065Z,33.21
2022-10-04T08:46:55.451Z,33.88
2022-10-04T08:52:49.237Z,34.28
2022-10-04T08:58:24.363Z,34.63
2022-10-04T09:04:26.306Z,34.45
2022-10-04T09:10:04.107Z,34.24
2022-10-04T09:15:29.389Z,34.81
2022-10-04T09:21:45.506Z,34.92
2022-10-04T09:27:53.726Z,34.86
2022-10-04T09:33:32.884Z,35.10
2022-10-04T09:39:28.997Z,34.59
2022-10-04T09:51:46.477Z,34.32
2022-10-04T09:57:30.295Z,33.43
2022-10-04T10:03:31.095Z,34.16
2022-10-04T10:09:24.864Z,33.36
2022-10-04T10:15:07.720Z,33.15
2022-10-04T10:20:57.664Z,33.24
2022-10-04T10:26:41.796Z,32.44
2022-10-04T10:32:35.260Z,31.48
2022-10-04T10:37:49.947Z,31.34
2022-10-04T10:43:16.791Z,30.56
2022-10-04T10:48:23.444Z,29.63
2022-10-04T10:53:49.866Z,28.30
2022-10-04T10:59:37.345Z,27.69
2022-10-04T11:05:00.783Z,27.08
2022-10-04T11:10:39.078Z,26.70
2022-10-04T11:15:51.046Z,26.23
2022-10-04T11:21:27.837Z,26.54
2022-10-04T11:27:09.297Z,25.82
2022-10-04T11:38:30.366Z,24.96
2022-10-04T11:44:10.466Z,24.24
2022-10-04T11:49:23.773Z,23.98
2022-10-04T11:55:09.824Z,24.53
2022-10-04T12:00:50.623Z,24.58
2022-10-04T12:06:23.069Z,24.42
2022-10-04T12:11:59.109Z,23.98
2022-10-04T12:17:43.414Z,24.00
2022-10-04T12:23:48.039Z,24.10
2022-10-04T12:29:04.024Z,23.62
2022-10-04T12:34:38.432Z,24.21
2022-10-04T12:46:32.477Z,23.81
2022-10-04T12:52:07.019Z,22.93
2022-10-04T12:57:52.256Z,23.39
2022-10-04T13:03:35.130Z,23.56
2022-10-04T13:10:05.377Z,22.81
2022-10-04T13:22:05.439Z,22.54
2022-10-04T13:27:36.317Z,22.94
2022-10-04T13:32:51.601Z,22.27
2022-10-04T13:38:03.941Z,22.60
2022-10-04T13:43:49.022Z,22.04
2022-10-04T13:48:57.646Z,21.74
2022-10-04T13:54:25.321Z,21.70
2022-10-04T13:59:42.184Z,21.79
2022-10-04T14:05:24.428Z,21.50
2022-10-04T14:10:47.695Z,21.65
2022-10-04T14:16:23.090Z,21.05
2022-10-04T14:21:59.691Z,20.91
2022-10-04T14:27:42.655Z,21.30
2022-10-04T14:39:55.698Z,20.63
2022-10-04T14:45:40.631Z,20.54
2022-10-04T14:50:59.936Z,21.33
2022-10-04T14:56:52.285Z,20.82
2022-10-04T15:02:28.874Z,21.21
2022-10-04T15:07:43.051Z,21.22
2022-10-04T15:13:16.835Z,21.41
2022-10-04T15:18:32.283Z,21.55
2022-10-04T15:23:49.048Z,20.80
2022-10-04T15:29:38.710Z,20.94
2022-10-04T15:35:18.624Z,21.06
2022-10-04T15:41:32.783Z,20.17
2022-10-04T15:46:57.616Z,19.61
2022-10-04T15:53:05.317Z,19.98
2022-10-04T15:58:40.984Z,19.57
2022-10-04T16:04:24.381Z,19.63
2022-10-04T16:10:07.388Z,19.67
2022-10-04T16:21:36.140Z,19.48
2022-10-04T16:27:16.722Z,19.44
2022-10-04T16:33:29.289Z,18.68
2022-10-04T16:39:07.829Z,18.64
2022-10-04T16:45:12.109Z,19.49
2022-10-04T16:50:48.205Z,19.49
2022-10-04T16:56:18.350Z,18.92
2022-10-04T17:01:55.288Z,19.12
2022-10-04T17:07:00.842Z,18.83
2022-10-04T17:12:42.225Z,18.64
2022-10-04T17:18:22.273Z,19.30
2022-10-04T17:23:51.230Z,18.57
2022-10-04T17:29:54.406Z,19.04
2022-10-04T17:35:15.236Z,18.73
2022-10-04T17:40:51.744Z,18.80
2022-10-04T17:46:47.744Z,18.00
2022-10-04T17:52:21.163Z,17.92
2022-10-04T18:10:24.308Z,17.84
2022-10-04T18:15:26.251Z,18.49
2022-10-04T18:20:33.683Z,18.34
2022-10-04T18:25:43.719Z,18.00
2022-10-04T18:30:58.527Z,18.19
2022-10-04T18:36:14.414Z,17.69
2022-10-04T18:41:22.929Z,18.05
2022-10-04T18:46:22.909Z,18.19
2022-10-04T18:52:04.520Z,17.46
2022-10-04T18:58:07.421Z,17.90
2022-10-04T19:03:16.613Z,18.04
2022-10-04T19:08:30.157Z,17.78
2022-10-04T19:13:38.418Z,17.84
2022-10-04T19:18:57.919Z,17.90
2022-10-04T19:24:52.148Z,17.70
2022-10-04T19:30:23.827Z,17.29
2022-10-04T19:35:45.744Z,17.95
2022-10-04T19:40:48.208Z,17.84
2022-10-04T19:46:01.624Z,17.32
2022-10-04T19:51:08.202Z,17.26
2022-10-04T19:56:24.243Z,17.73
2022-10-04T20:01:24.445Z,17.76
2022-10-04T20:06:25.626Z,17.96
2022-10-04T20:11:27.170Z,17.29
2022-10-04T20:17:05.893Z,17.29
2022-10-04T20:22:28.911Z,17.75
2022-10-04T20:28:14.078Z,18.01
2022-10-04T20:33:38.854Z,17.36
2022-10-04T20:39:01.553Z,17.47
2022-10-04T20:44:01.687Z,17.99
2022-10-04T20:48:59.366Z,17.83
2022-10-04T20:54:03.272Z,17.14
2022-10-04T20:59:01.588Z,17.70
2022-10-04T21:04:16.535Z,17.27
2022-10-04T21:09:14.646Z,17.13
2022-10-04T21:14:22.869Z,17.47
2022-10-04T21:19:54.912Z,17.27
2022-10-04T21:24:55.780Z,17.31
2022-10-04T21:29:53.162Z,17.31
2022-10-04T21:34:56.056Z,17.23
2022-10-04T21:39:55.781Z,17.46
2022-10-04T21:44:53.075Z,17.44
2022-10-04T21:49:52.080Z,17.23
2022-10-04T21:54:49.111Z,17.16
2022-10-04T21:59:47.411Z,17.31
2022-10-04T22:04:44.197Z,17.25
2022-10-04T22:09:41.035Z,16.91
2022-10-04T22:14:37.916Z,17.18
2022-10-04T22:19:36.075Z,17.23
2022-10-04T22:24:32.961Z,17.01
2022-10-04T22:29:34.274Z,16.66
2022-10-04T22:34:31.758Z,16.83
2022-10-04T22:39:33.067Z,16.87
2022-10-04T22:44:34.581Z,16.80
2022-10-04T22:49:33.917Z,15.97
2022-10-04T22:54:33.730Z,16.25
2022-10-04T22:59:37.926Z,16.11
2022-10-04T23:04:36.354Z,16.19
2022-10-04T23:09:38.328Z,15.97
2022-10-04T23:14:38.268Z,16.34
2022-10-04T23:19:36.455Z,15.73
2022-10-04T23:24:42.820Z,15.86
2022-10-04T23:29:40.093Z,15.69
2022-10-04T23:34:39.039Z,15.64
2022-10-04T23:39:37.038Z,15.64
2022-10-04T23:44:35.751Z,15.80
2022-10-04T23:49:32.748Z,15.62
2022-10-04T23:54:30.016Z,15.87
2022-10-04T23:59:28.957Z,15.30
